createdAt,value
2022-11-25T00:02:05.565Z,5.98
2022-11-25T00:07:07.424Z,6.03
2022-11-25T00:12:09.239Z,6.07
2022-11-25T00:17:11.044Z,6.12
2022-11-25T00:22:12.836Z,6.16
2022-11-25T00:27:14.612Z,6.20
2022-11-25T00:32:16.508Z,6.22
2022-11-25T00:37:18.531Z,6.24
2022-11-25T00:42:39.055Z,6.28
2022-11-25T00:47:40.963Z,6.30
2022-11-25T00:52:42.785Z,6.32
2022-11-25T00:57:44.532Z,6.33
2022-11-25T01:02:48.361Z,6.32
2022-11-25T01:07:50.217Z,6.31
2022-11-25T01:12:52.095Z,6.27
2022-11-25T01:17:53.871Z,6.18
2022-11-25T01:22:55.678Z,6.10
2022-11-25T01:27:57.520Z,6.02
2022-11-25T01:32:59.545Z,5.95
2022-11-25T01:38:02.060Z,5.91
2022-11-25T01:43:03.788Z,5.88
2022-11-25T01:48:15.078Z,5.87
2022-11-25T01:53:20.860Z,5.89
2022-11-25T02:03:57.893Z,5.97
2022-11-25T02:09:04.980Z,6.02
2022-11-25T02:14:08.684Z,6.09
2022-11-25T02:19:23.610Z,6.15
2022-11-25T02:24:34.761Z,6.20
2022-11-25T02:29:37.900Z,6.22
2022-11-25T02:34:50.916Z,6.26
2022-11-25T02:39:55.176Z,6.28
2022-11-25T02:44:57.183Z,6.31
2022-11-25T02:49:59.239Z,6.32
2022-11-25T02:55:01.045Z,6.32
2022-11-25T03:00:04.437Z,6.34
2022-11-25T03:05:06.296Z,6.34
2022-11-25T03:10:08.182Z,6.34
2022-11-25T03:15:10.754Z,6.32
2022-11-25T03:20:13.239Z,6.31
2022-11-25T03:25:16.650Z,6.29
2022-11-25T03:30:22.997Z,6.26
2022-11-25T03:35:27.832Z,6.25
2022-11-25T03:40:29.738Z,6.24
2022-11-25T03:45:31.599Z,6.22
2022-11-25T03:50:36.866Z,6.21
2022-11-25T03:55:38.649Z,6.24
2022-11-25T04:00:40.729Z,6.25
2022-11-25T04:05:42.672Z,6.24
2022-11-25T04:10:44.644Z,6.22
2022-11-25T04:15:49.422Z,6.18
2022-11-25T04:20:52.632Z,6.16
2022-11-25T04:25:55.405Z,6.14
2022-11-25T04:31:08.459Z,6.13
2022-11-25T04:36:13.663Z,6.13
2022-11-25T04:41:16.171Z,6.11
2022-11-25T04:46:25.059Z,6.10
2022-11-25T04:51:27.078Z,6.10
2022-11-25T04:56:33.752Z,6.11
2022-11-25T05:01:35.817Z,6.04
2022-11-25T05:06:47.039Z,5.98
2022-11-25T05:11:49.932Z,5.91
2022-11-25T05:16:52.561Z,5.84
2022-11-25T05:21:54.875Z,5.79
2022-11-25T05:26:57.262Z,5.76
2022-11-25T05:31:59.760Z,5.71
2022-11-25T05:37:01.639Z,5.64
2022-11-25T05:42:04.990Z,5.59
2022-11-25T05:47:07.026Z,5.51
2022-11-25T05:52:09.625Z,5.44
2022-11-25T05:57:21.715Z,5.36
2022-11-25T06:02:33.811Z,5.28
2022-11-25T06:07:36.786Z,5.21
2022-11-25T06:12:39.303Z,5.16
2022-11-25T06:17:41.420Z,5.06
2022-11-25T06:22:49.333Z,4.97
2022-11-25T06:28:12.522Z,4.92
2022-11-25T06:33:16.960Z,4.83
2022-11-25T06:38:21.147Z,4.76
2022-11-25T06:43:22.965Z,4.71
2022-11-25T06:48:25.101Z,4.69
2022-11-25T06:53:27.824Z,4.69
2022-11-25T06:58:36.234Z,4.70
2022-11-25T07:03:38.633Z,4.70
2022-11-25T07:08:41.646Z,4.70
2022-11-25T07:13:44.597Z,4.70
2022-11-25T07:18:46.818Z,4.71
2022-11-25T07:23:50.333Z,4.73
2022-11-25T07:28:54.726Z,4.78
2022-11-25T07:34:03.723Z,4.85
2022-11-25T07:39:17.427Z,4.92
2022-11-25T07:44:22.061Z,4.98
2022-11-25T07:49:27.016Z,5.05
2022-11-25T07:54:29.820Z,5.13
2022-11-25T07:59:32.050Z,5.25
2022-11-25T08:04:34.309Z,5.39
2022-11-25T08:09:36.376Z,5.51
2022-11-25T08:14:38.404Z,5.64
2022-11-25T08:19:40.634Z,5.73
2022-11-25T08:24:43.127Z,5.81
2022-11-25T08:29:45.058Z,5.92
2022-11-25T08:34:46.909Z,6.04
2022-11-25T08:39:52.916Z,6.12
2022-11-25T08:44:57.735Z,6.17
2022-11-25T08:50:00.004Z,6.25
2022-11-25T08:55:02.055Z,6.32
2022-11-25T09:00:08.047Z,6.42
2022-11-25T09:05:13.051Z,6.57
2022-11-25T09:10:17.687Z,6.67
2022-11-25T09:15:19.541Z,6.66
2022-11-25T09:20:21.915Z,6.65
2022-11-25T09:25:23.726Z,6.63
2022-11-25T09:30:26.260Z,6.66
2022-11-25T09:35:28.264Z,6.71
2022-11-25T09:40:44.118Z,6.79
2022-11-25T09:46:17.194Z,6.87
2022-11-25T09:51:24.415Z,6.96
2022-11-25T09:56:44.096Z,7.07
2022-11-25T10:01:52.530Z,7.15
2022-11-25T10:07:01.433Z,7.25
2022-11-25T10:12:28.137Z,7.32
2022-11-25T10:17:36.209Z,7.42
2022-11-25T10:22:43.147Z,7.51
2022-11-25T10:28:02.491Z,7.62
2022-11-25T10:33:25.145Z,7.74
2022-11-25T10:38:39.985Z,7.82
2022-11-25T10:43:42.895Z,7.90
2022-11-25T10:48:50.372Z,7.96
2022-11-25T10:54:13.833Z,8.06
2022-11-25T10:59:27.465Z,8.15
2022-11-25T11:04:29.685Z,8.20
2022-11-25T11:09:36.812Z,8.25
2022-11-25T11:14:38.837Z,8.33
2022-11-25T11:19:41.150Z,8.39
2022-11-25T11:24:42.968Z,8.44
2022-11-25T11:29:44.755Z,8.49
2022-11-25T11:35:02.915Z,8.52
2022-11-25T11:40:07.693Z,8.54
2022-11-25T11:45:24.869Z,8.58
2022-11-25T11:50:29.653Z,8.62
2022-11-25T11:56:11.945Z,8.63
2022-11-25T12:01:31.074Z,8.60
2022-11-25T12:06:35.573Z,8.56
2022-11-25T12:11:44.382Z,8.56
2022-11-25T12:16:56.017Z,8.56
2022-11-25T12:22:13.700Z,8.57
2022-11-25T12:27:36.587Z,8.60
2022-11-25T12:32:38.590Z,8.63
2022-11-25T12:38:04.746Z,8.69
2022-11-25T12:43:11.248Z,8.74
2022-11-25T12:48:17.293Z,8.80
2022-11-25T12:53:35.911Z,8.83
2022-11-25T12:58:49.853Z,8.86
2022-11-25T13:04:36.056Z,8.91
2022-11-25T13:10:07.553Z,8.93
2022-11-25T13:15:33.672Z,8.95
2022-11-25T13:20:43.854Z,8.96
2022-11-25T13:25:48.285Z,8.96
2022-11-25T13:30:52.358Z,8.94
2022-11-25T13:35:55.814Z,8.93
2022-11-25T13:41:16.462Z,8.89
2022-11-25T13:46:45.885Z,8.84
2022-11-25T13:51:54.083Z,8.81
2022-11-25T13:57:11.058Z,8.78
2022-11-25T14:02:28.256Z,8.77
2022-11-25T14:07:36.637Z,8.72
2022-11-25T14:13:02.394Z,8.67
2022-11-25T14:19:16.901Z,8.60
2022-11-25T14:24:38.992Z,8.52
2022-11-25T14:29:48.971Z,8.46
2022-11-25T14:35:00.007Z,8.42
2022-11-25T14:40:07.221Z,8.36
2022-11-25T14:45:25.017Z,8.28
2022-11-25T14:50:34.776Z,8.21
2022-11-25T14:55:38.129Z,8.14
2022-11-25T15:01:08.003Z,8.06
2022-11-25T15:06:14.488Z,7.96
2022-11-25T15:11:20.174Z,7.87
2022-11-25T15:16:26.526Z,7.77
2022-11-25T15:21:53.903Z,7.69
2022-11-25T15:27:02.983Z,7.60
2022-11-25T15:32:05.145Z,7.53
2022-11-25T15:37:11.767Z,7.48
2022-11-25T15:42:21.957Z,7.44
2022-11-25T15:47:32.129Z,7.39
2022-11-25T15:52:38.436Z,7.36
2022-11-25T15:57:42.128Z,7.31
2022-11-25T16:02:44.040Z,7.26
2022-11-25T16:07:52.321Z,7.23
2022-11-25T16:13:23.067Z,7.20
2022-11-25T16:18:40.720Z,7.20
2022-11-25T16:23:53.054Z,7.22
2022-11-25T16:29:00.901Z,7.22
2022-11-25T16:34:21.014Z,7.20
2022-11-25T16:39:22.805Z,7.18
2022-11-25T16:44:27.348Z,7.18
2022-11-25T16:49:32.007Z,7.17
2022-11-25T16:54:34.059Z,7.18
2022-11-25T16:59:41.583Z,7.17
2022-11-25T17:04:43.601Z,7.18
2022-11-25T17:09:46.603Z,7.19
2022-11-25T17:14:49.353Z,7.20
2022-11-25T17:19:52.216Z,7.20
2022-11-25T17:24:54.497Z,7.21
2022-11-25T17:30:00.048Z,7.21
2022-11-25T17:35:02.104Z,7.20
2022-11-25T17:40:04.281Z,7.18
2022-11-25T17:45:18.667Z,7.19
2022-11-25T17:50:25.970Z,7.19
2022-11-25T17:55:28.055Z,7.18
2022-11-25T18:00:33.691Z,7.18
2022-11-25T18:05:35.462Z,7.20
2022-11-25T18:10:39.519Z,7.22
2022-11-25T18:15:41.604Z,7.23
2022-11-25T18:20:43.777Z,7.25
2022-11-25T18:25:46.501Z,7.25
2022-11-25T18:30:49.716Z,7.25
2022-11-25T18:35:52.031Z,7.25
2022-11-25T18:40:55.347Z,7.27
2022-11-25T18:45:59.300Z,7.34
2022-11-25T18:51:02.396Z,7.41
2022-11-25T18:56:05.358Z,7.47
2022-11-25T19:01:13.292Z,7.52
2022-11-25T19:06:15.482Z,7.57
2022-11-25T19:11:29.515Z,7.57
2022-11-25T19:16:31.450Z,7.57
2022-11-25T19:21:34.078Z,7.54
2022-11-25T19:26:43.380Z,7.53
2022-11-25T19:31:45.787Z,7.52
2022-11-25T19:36:47.625Z,7.51
2022-11-25T19:41:49.469Z,7.51
2022-11-25T19:52:19.672Z,7.51
2022-11-25T19:57:24.167Z,7.52
2022-11-25T20:02:29.632Z,7.52
2022-11-25T20:07:32.354Z,7.53
2022-11-25T20:12:34.292Z,7.54
2022-11-25T20:17:37.734Z,7.54
2022-11-25T20:22:44.538Z,7.54
2022-11-25T20:27:46.589Z,7.55
2022-11-25T20:32:48.562Z,7.56
2022-11-25T20:37:58.248Z,7.57
2022-11-25T20:43:00.710Z,7.59
2022-11-25T20:48:02.635Z,7.60
2022-11-25T20:53:04.893Z,7.61
2022-11-25T20:58:17.670Z,7.64
2022-11-25T21:03:19.592Z,7.65
2022-11-25T21:08:24.676Z,7.65
2022-11-25T21:13:29.660Z,7.66
2022-11-25T21:18:31.648Z,7.68
2022-11-25T21:23:36.699Z,7.70
2022-11-25T21:28:42.570Z,7.70
2022-11-25T21:33:46.208Z,7.70
2022-11-25T21:38:51.663Z,7.70
2022-11-25T21:43:53.544Z,7.70
2022-11-25T21:48:55.254Z,7.70
2022-11-25T21:53:57.203Z,7.70
2022-11-25T21:59:01.865Z,7.69
2022-11-25T22:04:03.597Z,7.71
2022-11-25T22:09:05.451Z,7.71
2022-11-25T22:14:39.748Z,7.70
2022-11-25T22:19:42.419Z,7.69
2022-11-25T22:24:45.166Z,7.68
2022-11-25T22:29:47.494Z,7.67
2022-11-25T22:34:49.251Z,7.68
2022-11-25T22:39:51.592Z,7.66
2022-11-25T22:44:56.072Z,7.65
2022-11-25T22:49:58.299Z,7.66
2022-11-25T22:55:16.581Z,7.66
2022-11-25T23:00:38.610Z,7.68
2022-11-25T23:05:40.938Z,7.64
2022-11-25T23:10:44.209Z,7.63
2022-11-25T23:15:49.807Z,7.63
2022-11-25T23:20:51.532Z,7.62
2022-11-25T23:25:54.586Z,7.64
2022-11-25T23:30:58.574Z,7.64
2022-11-25T23:36:06.088Z,7.63
2022-11-25T23:41:15.888Z,7.63
2022-11-25T23:46:23.078Z,7.62
2022-11-25T23:51:27.408Z,7.61
2022-11-25T23:56:29.215Z,7.61
